Hualapai Flat, Nevada Weather observations

Data are for 10 minute period ending at time listed.
 Day   Time   Solar   Ave.   Ave.  Ave.  Vector  Max.   Baro.   Total    
  of    of     Rad.   Air    Rel.  Wind   Wind   Wind  Press.  Precip.   
Year   Day            Temp.  Hum.  Speed  Dir.   Gust                    
2016   (PST)  Kw/m2    F      %     mph   deg.    mph    mb.     in.     
-------------------------------------------------------------------------
 267   20:30   0.00   57.5    53    6.2   349     8.6   880.4    0.00 
 267   20:40   0.00   56.6    55    5.4   337     6.9   880.5    0.00 
 267   20:50   0.00   55.5    58    5.2   333     6.4   880.6    0.01 
 267   21:00   0.00   55.0    60    6.0   328     7.5   880.9    0.01 
 267   21:10   0.00   55.0    60    5.4   346     6.4   880.9    0.00 
 267   21:20   0.00   55.5    58    5.3   338     6.4   880.8    0.00 
 267   21:30   0.00   55.5    57    5.1   304     8.0   880.9    0.00 
 267   21:40   0.00   57.5    52    5.5   289     8.4   880.9    0.00 
 267   21:50   0.00   57.6    54    4.6   279     6.6   881.1    0.00 
 267   22:00   0.00   57.8    54    5.0   292     9.6   881.4    0.01 
 267   22:10   0.00   57.4    55    6.1   296     9.6   881.4    0.01 
 267   22:20   0.00   57.3    55    5.7   305     9.1   881.5    0.00 
 267   22:30   0.00   57.3    55    5.6   314     7.7   881.7    0.00 
 267   22:40   0.00   56.6    57    4.9   318     7.2   881.8    0.00 
 267   22:50   0.00   56.1    57    4.2   318     6.2   881.5    0.00 
 267   23:00   0.00   54.7    59    4.9   305     8.8   881.7    0.00 
 267   23:10   0.00   54.4    58    6.6   291     9.3   881.6    0.00 
 267   23:20   0.00   53.6    60    6.2   298     9.6   881.7    0.00 
 267   23:30   0.00   53.9    61    6.7   306     9.6   881.8    0.00 
 267   23:40   0.00   53.7    62    5.6   335     8.8   881.7    0.00 
 267   23:50   0.00   52.4    65    5.5   321     7.7   881.7    0.00 
 268    0:00   0.00   52.4    63    5.1   300     8.3   881.7    0.00 
 268    0:10   0.00   51.6    64    5.0   295     7.0   881.8    0.00 
 268    0:20   0.00   51.5    65    5.0   303     8.0   881.8    0.00 
 268    0:30   0.00   51.5    65    4.4   340     6.9   881.9    0.00 
 268    0:40   0.00   51.6    64    3.2   358     4.8   882.0    0.00 
 268    0:50   0.00   50.1    64    5.2   353     7.1   882.0    0.02 
 268    1:00   0.00   47.2    69    6.4   349     7.5   882.0    0.00 
 268    1:10   0.00   46.6    72    5.8   344     6.9   882.1    0.00 
 268    1:20   0.00   47.8    73    5.8   313     6.7   882.1    0.00 
 268    1:30   0.00   49.8    70    4.4   307     7.0   882.1    0.00 
 268    1:40   0.00   51.2    67    3.2   358     4.7   882.1    0.00 
 268    1:50   0.00   49.1    71    5.9   333     8.2   882.0    0.00 
 268    2:00   0.00   48.6    73    4.0   315     5.5   882.0    0.00 
 268    2:10   0.00   48.2    72    5.4   343     7.8   882.0    0.00 
 268    2:20   0.00   49.1    74    6.1   336     8.8   882.0    0.00 
 268    2:30   0.00   48.9    74    5.8   331    10.0   882.0    0.01 
 268    2:40   0.00   49.9    72    5.8   333     8.8   882.2    0.01 
 268    2:50   0.00   48.6    74    5.2   338     8.3   882.3    0.00 
 268    3:00   0.00   47.5    76    6.0   310     7.8   882.3    0.00 
 268    3:10   0.00   46.7    77    7.1   285     9.6   882.3    0.00 
 268    3:20   0.00   47.0    76    6.5   273     9.3   882.3    0.00 
 268    3:30   0.00   46.2    76    4.1   312     6.6   882.6    0.00 
 268    3:40   0.00   46.0    77    0.9   144     3.1   882.6    0.00 
 268    3:50   0.00   46.2    77    2.1   255     7.2   882.7    0.00 
 268    4:00   0.00   47.5    76    4.1   292     6.8   882.8    0.01 
 268    4:10   0.00   46.9    75    4.0   290     5.8   882.8    0.01 
 268    4:20   0.00   46.3    77    4.7   356     8.8   882.8    0.00 
 268    4:30   0.00   46.8    78    6.2   351     9.9   882.8    0.00 
 268    4:40   0.00   46.7    78    6.7   340    10.7   882.8    0.00 
 268    4:50   0.00   46.9    78    5.9   312     8.4   882.9    0.00 
 268    5:00   0.00   46.6    77    4.7   297     8.6   883.2    0.00 
 268    5:10   0.00   46.3    78    3.0   316     6.9   883.3    0.01 
 268    5:20   0.00   46.7    76    1.9   346     3.7   883.3    0.01 
 268    5:30   0.00   46.4    76    4.1   296     7.1   883.4    0.00 
 268    5:40   0.00   44.5    80    5.8   296     8.7   883.5    0.00 
 268    5:50   0.00   45.7    80    6.8   314     9.0   883.5    0.00 
 268    6:00   0.01   46.1    79    6.2   317     8.3   883.6    0.00 
 268    6:10   0.04   46.9    78    5.9   307     8.4   883.8    0.00 
 268    6:20   0.07   46.8    78    2.7   236     5.6   884.0    0.01 
 268    6:30   0.10   47.5    77    1.8    14     4.4   884.0    0.01 
 268    6:40   0.14   47.9    77    2.8    11     3.9   884.0    0.00 
 268    6:50   0.17   50.5    76    2.9   202     4.7   884.0    0.00 
 268    7:00   0.20   52.0    75    2.8   188     4.1   884.2    0.00 
 268    7:10   0.23   54.3    74    3.1   188     5.2   884.2    0.00 
 268    7:20   0.26   55.1    68    2.8   220     4.3   884.3    0.00 
 268    7:30   0.29   55.7    67    2.4   204     4.0   884.5    0.00 
 268    7:40   0.33   57.3    64    2.4   205     3.8   884.5    0.00 
 268    7:50   0.35   58.5    62    3.2   173     4.3   884.6    0.00 
 268    8:00   0.38   57.7    60    3.3   155     5.2   884.7    0.00 
 268    8:10   0.41   56.9    60    4.2   148     7.2   884.9    0.00 
 268    8:20   0.44   56.6    61    3.8   130     6.6   885.0    0.00 
 268    8:30   0.45   56.6    61    3.2   105     5.1   885.1    0.00 
 268    8:40   0.14   57.1    61    3.5   119     7.9   885.2    0.00 
 268    8:50   0.15   57.9    60    3.2   162     5.7   885.3    0.00 
 268    9:00   0.54   59.3    56    2.8   141     6.8   885.4    0.00 
 268    9:10   0.56   58.6    57    2.3    77     4.4   885.4    0.00 
 268    9:20   0.59   60.4    55    2.0   192     4.7   885.4    0.00 
 268    9:30   0.61   60.5    52    2.4   318     5.3   885.4    0.00 
 268    9:40   0.63   61.1    52    3.4   170     8.1   885.4    0.00 
 268    9:50   0.65   61.9    49    2.6   170     8.4   885.5    0.00 
 268   10:00   0.67   63.5    45    2.6   216     5.4   885.5    0.00 
 268   10:10   0.68   62.5    45    1.9    12     6.6   885.6    0.00 
 268   10:20   0.70   62.0    46    1.3   112     3.4   885.6    0.00 
 268   10:30   0.71   63.2    44    3.8   137     6.7   885.6    0.00 
 268   10:40   0.72   63.2    45    3.0    96     5.6   885.5    0.00 
 268   10:50   0.74   62.9    43    3.2    38     5.8   885.5    0.00 
 268   11:00   0.74   62.9    41    2.9    34     5.8   885.4    0.00 
 268   11:10   0.75   64.0    39    2.6    16     5.4   885.3    0.00 
 268   11:20   0.76   64.5    37    2.5    13     7.2   885.2    0.00 
 268   11:30   0.76   65.0    38    2.4    73     5.6   885.1    0.00 
 268   11:40   0.76   66.0    39    3.5   158    12.4   885.1    0.00 
 268   11:50   0.76   68.6    32    5.1   217    10.2   885.1    0.00 
 268   12:00   0.76   70.7    30    4.6   195     9.1   885.2    0.00 
 268   12:10   0.75   69.7    31    5.7   155     9.9   885.2    0.00 
 268   12:20   0.75   69.2    32    3.5   195     8.6   885.1    0.00 
 268   12:30   0.74   71.3    30    7.2   190    11.5   885.0    0.00 
 268   12:40   0.73   71.7    29    6.4   197    13.4   884.9    0.00 
 268   12:50   0.72   71.0    31    6.5   170    10.4   884.8    0.00 
 268   13:00   0.71   71.5    29    3.6   191     9.9   884.7    0.00 
 268   13:10   0.70   68.9    34    5.3   114     9.4   884.5    0.00 
 268   13:20   0.68   68.7    32    6.1   138    10.9   884.4    0.00 
 268   13:30   0.67   70.0    31    6.0   146    11.2   884.3    0.00 
 268   13:40   0.65   70.6    30    3.8   128     6.9   884.3    0.00 
 268   13:50   0.63   69.4    31    4.3   110     7.2   884.0    0.00 
 268   14:00   0.61   70.7    31    3.5   121     8.1   883.9    0.00 
 268   14:10   0.59   72.1    29    5.3   175    10.1   883.9    0.00 
 268   14:20   0.55   72.5    27    7.0   151    12.6   883.8    0.00 
 268   14:30   0.54   71.7    28    8.7   148    14.0   883.7    0.00 
 268   14:40   0.52   72.1    26    5.8   151    10.8   883.8    0.00 
 268   14:50   0.49   70.9    28    7.2   122    11.8   883.9    0.00 
 268   15:00   0.47   70.5    29    6.2   126    10.2   884.0    0.00 
 268   15:10   0.44   70.9    29    7.9   140    13.7   884.0    0.00 
 268   15:20   0.41   70.3    28    7.3   125    10.4   884.0    0.00 
 268   15:30   0.38   71.3    28    6.8   158    11.2   884.0    0.00 
 268   15:40   0.35   71.0    28    6.5   129    11.8   884.1    0.00 
 268   15:50   0.32   70.2    28    7.0   136    12.1   884.1    0.00 
 268   16:00   0.29   70.8    27    7.4   147    11.8   884.1    0.00 
 268   16:10   0.26   70.3    28    6.9   137    12.9   884.1    0.00 
 268   16:20   0.23   69.3    28    8.0   136    11.5   884.2    0.00 
 268   16:30   0.20   69.0    29    6.6   132    10.6   884.3    0.00 
 268   16:40   0.17   68.6    29    7.0   128     9.6   884.4    0.00 
 268   16:50   0.14   68.4    30    5.6   141     8.6   884.4    0.00 
 268   17:00   0.12   67.6    30    5.9   134     7.9   884.4    0.00 
 268   17:10   0.09   67.1    30    5.3   128     6.8   884.4    0.00 
 268   17:20   0.07   66.4    31    3.5   118     5.7   884.5    0.00 
 268   17:30   0.03   65.7    32    2.5   107     4.0   884.6    0.00 
 268   17:40   0.01   64.5    31    3.1   106     3.9   884.7    0.00 
 268   17:50   0.01   64.0    29    2.9    89     3.8   884.7    0.00 
 268   18:00   0.00   63.8    29    1.7    95     2.5   884.7    0.00 
 268   18:10   0.00   63.7    29    1.4    51     2.0   884.8    0.00 
 268   18:20   0.00   63.0    28    1.3    17     1.7   884.8    0.00 
 268   18:30   0.00   61.3    29    3.4   303     6.3   884.8    0.00 
 268   18:40   0.00   54.6    34    6.6   288     7.3   884.9    0.00 
 268   18:50   0.00   53.5    34    7.3   295     8.0   884.9    0.00 
 268   19:00   0.00   52.9    37    7.6   297     8.0   885.0    0.00 
 268   19:10   0.00   53.0    38    7.2   298     8.5   885.0    0.00 
 268   19:20   0.00   53.7    37    7.5   290     8.4   885.2    0.00 
 268   19:30   0.00   53.4    37    7.3   293     8.2   885.3    0.00 
 268   19:40   0.00   52.9    38    7.7   297     8.6   885.4    0.00 
 268   19:50   0.00   52.9    38    7.7   298     8.6   885.5    0.00 
 268   20:00   0.00   53.3    38    7.1   302     8.3   885.6    0.00 
 268   20:10   0.00   51.8    44    6.5   327     8.9   885.7    0.00 
 268   20:20   0.00   52.9    43    6.4   325     8.2   885.7    0.00 

Return to Hualapai Flat graphs page.


Western Regional Climate Center,wrcc@dri.edu